Hauptseite
METAR-TAF:

METAR-TAF

Flughäfen :

Flughafen Marka International

Amman, Jordanien

Breite: 31-59N, Länge: 035-59E, Höhe: 767 m

Beobachtung

Neuester Wetterbericht von vor 36 Minuten, um 20:00 UTC
Windstille
Temperatur 18°C
Luftfeuchtigkeit 42%
Luftdruck 1021 hPa
Sichtweite: 6000 m

METAR: OJAM 252000Z 00000KT 6000 NSC 18/05 Q1021 NOSIG

Zeit: 23:36 (20:36 UTC)

Prognose

Neuester Wetterbericht von vor 3 Stunden und 36 Minuten, um 17:00 UTC
Gültige Prognose vom 25 um 18 UTC bis 26 um 24 UTC
Wind 8 kt aus Nordwest
Sichtweite: 5000 m
trockener Dunst
Zeitweise
vom 25 um 18 UTC bis 26 um 06 UTC
Wind 2 kt aus unterschiedlichen Richtungen
Zeitweise
vom 26 um 06 UTC bis 26 um 16 UTC
Wind 12 kt aus Ost
Sichtweite: 5000 m
trockener Dunst

TAF: OJAM 251700Z 2518/2624 31008KT 5000 HZ NSC TEMPO 2518/2606 VRB02KT TEMPO 2606/2616 10012KT 5000 HZ

Wetterbeobachtungen und Prognosen von mehr als 4000 Flughäfen (METAR und TAF Bericht).

Die verfügbaren Stationen werden durch gelbe und rote Markierungen auf der Karte dargestellt.

Führen Sie die Maus auf sie, um den Namen der Station zu sehen.

Darauf klicken, um die Beobachtung von Wetterbeobachtungen und Prognosen zu sehen.

Um die Karte zu ändern : klicken Sie auf den grünen Tasten mit einem schwarzen Kreuz Zum Vergrößern, auf den grünen Button mit einem Gedankenstrich zu verkleinern, oder auf die grünen Pfeile für benachbarte Karten.


METAR-TAF: